Aviation Digital Data Service (ADDS)

Output produced by METARs form (1209 UTC 24 March 2017)
found at http://www.aviationweather.gov/adds/metars/
 
DTTA 241200Z 12016KT 090V160 9999 SCT026 20/12 Q1017 NOSIG
TAF DTTA 232320Z 2400/2424 17015KT 9999 FEW026 
     PROB30 2403/2418 15020G30KT
       
DTTR 241200Z 14017KT 3000 SA NSC 25/07 Q1014
TAF DTTR 241200Z 2413/2422 13018KT 3000 SA NSC 
     BECMG 2416/2418 11008KT 8000 NSC
       
DTTG 241200Z 12016KT 9999 FEW020 24/07 Q1015 NOSIG
TAF DTTG 241200Z 2413/2422 13017KT 9999 FEW020
       
DTTF 241200Z 13010KT 100V180 9999 FEW026 22/10 Q1014 NOSIG
TAF DTTF 241200Z 2413/2422 12012KT 9999 FEW026
       
DTMB 241200Z 10017KT 6000 SCT023 BKN030 OVC037 21/15 Q1018 NOSIG
TAF DTMB 232320Z 2400/2424 13006KT CAVOK 
     PROB30 
     TEMPO 2412/2418 14017G27KT
       
DTTZ 241200Z 11017KT 8000 NSC 25/06 Q1013 NOSIG
TAF DTTZ 232320Z 2400/2424 09017KT 9999 FEW040 
     PROB30 
     TEMPO 2416/2422 12017G27KT 4000 SA
       
DTTD 241200Z 19012KT 160V230 CAVOK 25/04 Q1016
DTTB 241200Z 14011KT 110V170 9999 SCT020 21/12 Q1017
TAF DTTB 241200Z 2413/2422 14014KT 9999 FEW020
       
DTKA 241200Z 09014KT 9999 FEW020 24/10 Q1014 NOSIG
TAF DTKA 241200Z 2413/2422 11015KT 9999 FEW020
       
DTTX 241200Z 11012KT 9999 SCT020 19/14 Q1017 NOSIG
TAF DTTX 241200Z 2413/2422 13015KT 9999 SCT020
       
DTTJ 241200Z 11015KT 9999 FEW026 23/09 Q1016 NOSIG
TAF DTTJ 232320Z 2400/2424 10012KT 8000 NSC 
     PROB30 
     TEMPO 2410/2424 12017G27KT